createdAt,value
2022-12-11T00:01:37.940Z,30.80
2022-12-11T00:04:05.383Z,32.50
2022-12-11T00:06:34.057Z,26.75
2022-12-11T00:09:01.496Z,29.45
2022-12-11T00:11:28.910Z,32.55
2022-12-11T00:13:56.084Z,32.25
2022-12-11T00:16:26.936Z,30.08
2022-12-11T00:18:54.825Z,29.83
2022-12-11T00:21:22.174Z,28.10
2022-12-11T00:23:49.369Z,29.23
2022-12-11T00:26:17.027Z,32.83
2022-12-11T00:28:44.890Z,28.92
2022-12-11T00:31:19.517Z,33.03
2022-12-11T00:33:49.268Z,33.28
2022-12-11T00:36:24.103Z,32.67
2022-12-11T00:38:51.902Z,29.98
2022-12-11T00:41:19.673Z,29.00
2022-12-11T00:43:47.636Z,30.98
2022-12-11T00:46:15.441Z,31.58
2022-12-11T00:48:42.847Z,30.27
2022-12-11T00:51:11.006Z,29.08
2022-12-11T00:53:39.251Z,28.52
2022-12-11T00:56:14.109Z,32.55
2022-12-11T00:58:41.579Z,34.33
2022-12-11T01:01:10.557Z,31.88
2022-12-11T01:03:37.971Z,29.25
2022-12-11T01:06:05.709Z,35.33
2022-12-11T01:08:38.282Z,35.95
2022-12-11T01:11:07.281Z,35.60
2022-12-11T01:13:34.992Z,34.63
2022-12-11T01:16:06.645Z,30.25
2022-12-11T01:18:34.024Z,35.83
2022-12-11T01:21:01.632Z,32.25
2022-12-11T01:23:29.011Z,37.05
2022-12-11T01:25:56.396Z,35.85
2022-12-11T01:28:23.755Z,35.80
2022-12-11T01:30:51.182Z,34.10
2022-12-11T01:33:18.590Z,37.45
2022-12-11T01:35:45.971Z,32.78
2022-12-11T01:38:13.355Z,34.13
2022-12-11T01:40:52.462Z,34.63
2022-12-11T01:43:20.019Z,38.65
2022-12-11T01:45:49.285Z,34.45
2022-12-11T01:48:24.573Z,34.70
2022-12-11T01:50:54.383Z,36.70
2022-12-11T01:53:28.037Z,37.42
2022-12-11T01:55:56.511Z,36.38
2022-12-11T01:58:25.589Z,34.45
2022-12-11T02:00:53.959Z,33.55
2022-12-11T02:03:21.901Z,41.20
2022-12-11T02:05:49.678Z,34.28
2022-12-11T02:08:17.429Z,33.75
2022-12-11T02:10:49.756Z,32.08
2022-12-11T02:13:24.333Z,32.42
2022-12-11T02:15:56.957Z,36.10
2022-12-11T02:18:56.779Z,39.03
2022-12-11T02:21:35.528Z,35.72
2022-12-11T02:24:02.910Z,37.58
2022-12-11T02:26:42.495Z,32.92
2022-12-11T02:29:12.539Z,32.67
2022-12-11T02:31:42.348Z,34.22
2022-12-11T02:34:13.175Z,33.53
2022-12-11T02:36:46.166Z,33.00
2022-12-11T02:39:15.349Z,31.95
2022-12-11T02:41:44.998Z,35.05
2022-12-11T02:44:14.378Z,36.47
2022-12-11T02:46:42.212Z,37.50
2022-12-11T02:49:10.554Z,34.47
2022-12-11T02:51:39.956Z,37.55
2022-12-11T02:54:08.599Z,37.83
2022-12-11T02:56:50.835Z,38.17
2022-12-11T02:59:21.352Z,36.65
2022-12-11T03:01:48.844Z,36.58
2022-12-11T03:04:16.346Z,34.33
2022-12-11T03:06:46.977Z,34.22
2022-12-11T03:09:14.366Z,34.97
2022-12-11T03:11:41.718Z,36.03
2022-12-11T03:14:09.154Z,32.75
2022-12-11T03:16:36.391Z,34.40
2022-12-11T03:19:13.270Z,33.28
2022-12-11T03:21:49.374Z,30.92
2022-12-11T03:24:39.556Z,33.13
2022-12-11T03:27:28.646Z,32.08
2022-12-11T03:29:59.025Z,33.00
2022-12-11T03:32:29.323Z,35.83
2022-12-11T03:35:06.586Z,34.70
2022-12-11T03:37:36.096Z,34.83
2022-12-11T03:40:06.376Z,36.42
2022-12-11T03:42:34.424Z,32.10
2022-12-11T03:45:03.508Z,32.35
2022-12-11T03:47:30.822Z,35.50
2022-12-11T03:49:59.440Z,36.67
2022-12-11T03:52:28.377Z,37.42
2022-12-11T03:54:58.129Z,41.05
2022-12-11T03:57:29.680Z,37.80
2022-12-11T03:59:57.380Z,39.60
2022-12-11T04:02:24.604Z,40.97
2022-12-11T04:04:51.805Z,41.90
2022-12-11T04:07:19.303Z,36.85
2022-12-11T04:09:46.750Z,40.33
2022-12-11T04:12:14.120Z,37.30
2022-12-11T04:14:59.696Z,35.17
2022-12-11T04:17:45.822Z,33.47
2022-12-11T04:20:31.643Z,33.10
2022-12-11T04:23:17.516Z,32.53
2022-12-11T04:25:44.956Z,33.90
2022-12-11T04:28:12.417Z,34.45
2022-12-11T04:30:39.789Z,32.80
2022-12-11T04:33:07.166Z,32.45
2022-12-11T04:35:34.373Z,35.13
2022-12-11T04:38:01.745Z,34.22
2022-12-11T04:40:28.963Z,33.42
2022-12-11T04:42:56.383Z,35.30
2022-12-11T04:45:23.804Z,36.65
2022-12-11T04:47:51.183Z,35.80
2022-12-11T04:50:18.617Z,34.28
2022-12-11T04:52:45.803Z,32.65
2022-12-11T04:55:13.799Z,34.72
2022-12-11T04:57:41.422Z,31.45
2022-12-11T05:00:09.817Z,30.27
2022-12-11T05:02:37.894Z,31.00
2022-12-11T05:05:06.665Z,32.33
2022-12-11T05:07:34.038Z,32.28
2022-12-11T05:10:01.224Z,30.42
2022-12-11T05:12:28.693Z,32.88
2022-12-11T05:14:56.375Z,30.80
2022-12-11T05:17:24.003Z,34.03
2022-12-11T05:19:52.023Z,31.35
2022-12-11T05:22:19.622Z,34.58
2022-12-11T05:24:46.973Z,34.88
2022-12-11T05:27:14.311Z,35.03
2022-12-11T05:29:42.133Z,36.00
2022-12-11T05:32:09.790Z,37.30
2022-12-11T05:34:37.229Z,36.75
2022-12-11T05:37:04.629Z,33.30
2022-12-11T05:39:31.770Z,33.38
2022-12-11T05:41:59.048Z,37.15
2022-12-11T05:44:27.132Z,37.70
2022-12-11T05:46:54.657Z,36.38
2022-12-11T05:49:25.996Z,40.60
2022-12-11T05:51:57.957Z,36.40
2022-12-11T05:54:25.762Z,36.58
2022-12-11T05:56:53.172Z,39.20
2022-12-11T05:59:20.386Z,38.10
2022-12-11T06:01:47.925Z,38.92
2022-12-11T06:04:15.183Z,38.40
2022-12-11T06:06:44.073Z,36.42
2022-12-11T06:09:15.016Z,34.80
2022-12-11T06:11:42.904Z,33.70
2022-12-11T06:14:10.934Z,36.08
2022-12-11T06:16:38.652Z,35.20
2022-12-11T06:19:06.162Z,40.97
2022-12-11T06:21:34.703Z,38.65
2022-12-11T06:24:04.141Z,34.38
2022-12-11T06:26:32.177Z,35.28
2022-12-11T06:28:59.509Z,37.38
2022-12-11T06:31:26.810Z,34.50
2022-12-11T06:33:54.291Z,34.33
2022-12-11T06:36:22.591Z,32.15
2022-12-11T06:38:50.028Z,28.60
2022-12-11T06:41:17.345Z,28.75
2022-12-11T06:43:44.786Z,28.85
2022-12-11T06:46:16.452Z,27.17
2022-12-11T06:48:44.330Z,26.33
2022-12-11T06:51:13.122Z,30.85
2022-12-11T06:53:40.595Z,30.55
2022-12-11T06:56:15.344Z,30.33
2022-12-11T06:58:42.980Z,31.08
2022-12-11T07:01:18.693Z,27.90
2022-12-11T07:03:46.010Z,28.83
2022-12-11T07:06:14.077Z,31.88
2022-12-11T07:08:41.796Z,34.25
2022-12-11T07:11:11.327Z,36.45
2022-12-11T07:13:38.782Z,39.00
2022-12-11T07:16:10.783Z,36.60
2022-12-11T07:18:40.326Z,39.30
2022-12-11T07:21:08.572Z,41.70
2022-12-11T07:23:36.282Z,33.70
2022-12-11T07:26:07.739Z,40.10
2022-12-11T07:28:35.320Z,45.72
2022-12-11T07:31:23.160Z,39.97
2022-12-11T07:33:57.733Z,40.80
2022-12-11T07:36:25.438Z,33.75
2022-12-11T07:38:52.983Z,32.88
2022-12-11T07:41:20.324Z,34.55
2022-12-11T07:43:47.740Z,39.05
2022-12-11T07:46:16.555Z,36.75
2022-12-11T07:48:45.026Z,33.08
2022-12-11T07:51:25.245Z,36.38
2022-12-11T07:53:53.616Z,35.25
2022-12-11T07:56:21.427Z,38.97
2022-12-11T07:58:48.937Z,40.65
2022-12-11T08:01:18.646Z,32.13
2022-12-11T08:03:46.080Z,35.72
2022-12-11T08:06:13.580Z,37.05
2022-12-11T08:08:41.612Z,36.00
2022-12-11T08:11:10.193Z,39.47
2022-12-11T08:13:37.853Z,33.60
2022-12-11T08:16:09.475Z,32.22
2022-12-11T08:18:37.580Z,33.88
2022-12-11T08:21:12.578Z,31.90
2022-12-11T08:23:39.936Z,33.47
2022-12-11T08:26:09.134Z,31.75
2022-12-11T08:28:36.655Z,30.45
2022-12-11T08:31:08.334Z,30.27
2022-12-11T08:33:36.664Z,30.23
2022-12-11T08:36:04.870Z,28.77
2022-12-11T08:38:32.254Z,29.75
2022-12-11T08:40:59.544Z,31.20
2022-12-11T08:43:27.038Z,34.13
2022-12-11T08:45:54.320Z,32.35
2022-12-11T08:48:21.687Z,38.67
2022-12-11T08:50:49.246Z,32.72
2022-12-11T08:53:16.475Z,36.53
2022-12-11T08:55:43.898Z,31.45
2022-12-11T08:58:11.332Z,31.75
2022-12-11T09:00:38.748Z,32.10
2022-12-11T09:03:09.844Z,37.88
2022-12-11T09:05:40.299Z,35.63
2022-12-11T09:08:07.519Z,34.38
2022-12-11T09:10:34.952Z,33.05
2022-12-11T09:13:02.448Z,36.33
2022-12-11T09:15:29.673Z,35.60
2022-12-11T09:17:57.182Z,34.67
2022-12-11T09:20:24.417Z,33.95
2022-12-11T09:22:51.609Z,33.40
2022-12-11T09:25:18.811Z,32.00
2022-12-11T09:27:46.043Z,27.90
2022-12-11T09:30:13.757Z,29.05
2022-12-11T09:32:41.009Z,33.60
2022-12-11T09:35:09.006Z,30.52
2022-12-11T09:37:36.428Z,29.17
2022-12-11T09:40:07.602Z,26.02
2022-12-11T09:42:55.554Z,26.85
2022-12-11T09:45:22.856Z,29.05
2022-12-11T09:47:51.909Z,27.17
2022-12-11T09:50:19.183Z,27.30
2022-12-11T09:52:55.456Z,30.17
2022-12-11T09:55:24.417Z,33.17
2022-12-11T09:58:14.614Z,27.58
2022-12-11T10:00:49.461Z,24.95
2022-12-11T10:03:19.931Z,29.58
2022-12-11T10:06:08.643Z,28.63
2022-12-11T10:08:44.345Z,30.20
2022-12-11T10:11:32.501Z,30.05
2022-12-11T10:14:22.084Z,21.83
2022-12-11T10:17:00.297Z,26.00
2022-12-11T10:19:30.778Z,31.00
2022-12-11T10:21:58.708Z,28.35
2022-12-11T10:25:09.392Z,29.40
2022-12-11T10:27:22.893Z,24.55
2022-12-11T10:29:56.234Z,24.30
2022-12-11T10:34:58.209Z,27.40
2022-12-11T10:37:25.537Z,28.27
2022-12-11T10:39:55.633Z,28.05
2022-12-11T10:42:23.504Z,30.38
2022-12-11T10:44:58.391Z,30.85
2022-12-11T10:47:26.004Z,33.03
2022-12-11T10:50:02.776Z,30.33
2022-12-11T10:52:37.418Z,28.92
2022-12-11T10:55:04.670Z,26.73
2022-12-11T10:57:33.254Z,31.38
2022-12-11T11:00:01.007Z,29.27
2022-12-11T11:02:40.408Z,17.25
2022-12-11T11:05:16.018Z,17.23
2022-12-11T11:07:43.548Z,15.18
2022-12-11T11:10:10.782Z,15.55
2022-12-11T11:12:39.792Z,14.90
2022-12-11T11:15:15.367Z,16.30
2022-12-11T11:17:54.530Z,15.32
2022-12-11T11:20:24.514Z,16.65
2022-12-11T11:22:55.488Z,13.73
2022-12-11T11:25:25.638Z,11.93
2022-12-11T11:27:57.610Z,12.38
2022-12-11T11:30:29.474Z,14.40
2022-12-11T11:33:00.832Z,10.90
2022-12-11T11:35:28.769Z,13.30
2022-12-11T11:38:03.221Z,12.23
2022-12-11T11:40:32.551Z,10.32
2022-12-11T11:43:04.447Z,11.82
2022-12-11T11:45:44.633Z,13.07
2022-12-11T11:48:11.885Z,12.07
2022-12-11T11:50:41.905Z,12.82
2022-12-11T11:53:22.470Z,10.88
2022-12-11T11:56:08.659Z,11.50
2022-12-11T11:58:41.962Z,11.40
2022-12-11T12:03:36.467Z,12.35
2022-12-11T12:06:08.828Z,11.10
2022-12-11T12:08:45.137Z,8.90
2022-12-11T12:11:18.449Z,11.63
2022-12-11T12:16:52.361Z,11.95
2022-12-11T12:19:43.162Z,10.88
2022-12-11T12:22:35.753Z,9.45
2022-12-11T12:25:16.834Z,10.63
2022-12-11T12:27:52.412Z,9.25
2022-12-11T12:30:23.359Z,11.52
2022-12-11T12:33:00.093Z,10.48
2022-12-11T12:35:38.575Z,7.40
2022-12-11T12:38:17.595Z,10.25
2022-12-11T12:40:52.099Z,9.10
2022-12-11T12:43:22.288Z,10.52
2022-12-11T12:46:08.511Z,9.25
2022-12-11T12:48:35.996Z,8.30
2022-12-11T12:51:06.969Z,13.15
2022-12-11T12:53:35.507Z,9.02
2022-12-11T12:56:03.482Z,9.65
2022-12-11T12:58:36.715Z,9.80
2022-12-11T13:01:15.464Z,11.98
2022-12-11T13:04:03.141Z,7.80
2022-12-11T13:06:41.305Z,7.90
2022-12-11T13:09:14.192Z,10.23
2022-12-11T13:11:41.511Z,7.25
2022-12-11T13:14:15.554Z,9.27
2022-12-11T13:16:43.807Z,10.25
2022-12-11T13:19:42.278Z,8.30
2022-12-11T13:22:15.832Z,7.78
2022-12-11T13:25:01.720Z,11.95
2022-12-11T13:27:40.410Z,9.43
2022-12-11T13:30:09.032Z,8.02
2022-12-11T13:32:36.239Z,8.73
2022-12-11T13:35:06.271Z,10.45
2022-12-11T13:37:41.603Z,10.70
2022-12-11T13:40:29.381Z,9.30
2022-12-11T13:42:58.485Z,9.63
2022-12-11T13:45:41.581Z,13.23
2022-12-11T13:48:27.981Z,10.40
2022-12-11T13:50:56.040Z,11.00
2022-12-11T13:53:23.771Z,9.68
2022-12-11T13:56:02.218Z,10.20
2022-12-11T13:58:30.111Z,10.63
2022-12-11T14:01:16.245Z,10.13
2022-12-11T14:03:54.099Z,9.25
2022-12-11T14:06:21.324Z,11.57
2022-12-11T14:08:53.629Z,9.85
2022-12-11T14:11:41.441Z,11.77
2022-12-11T14:14:28.964Z,11.38
2022-12-11T14:16:56.843Z,9.80
2022-12-11T14:19:25.298Z,10.85
2022-12-11T14:22:00.159Z,10.68
2022-12-11T14:24:27.645Z,11.35
2022-12-11T14:26:55.595Z,13.70
2022-12-11T14:29:30.561Z,13.70
2022-12-11T14:32:00.140Z,15.65
2022-12-11T14:34:30.207Z,11.05
2022-12-11T14:36:58.093Z,11.07
2022-12-11T14:39:28.203Z,10.90
2022-12-11T14:41:58.558Z,14.50
2022-12-11T14:44:26.799Z,12.45
2022-12-11T14:46:56.367Z,12.10
2022-12-11T14:49:29.721Z,11.77
2022-12-11T14:51:58.322Z,12.18
2022-12-11T14:54:38.896Z,14.85
2022-12-11T14:57:07.487Z,13.10
2022-12-11T14:59:42.044Z,12.65
2022-12-11T15:02:26.282Z,10.77
2022-12-11T15:05:05.827Z,11.98
2022-12-11T15:07:33.871Z,11.52
2022-12-11T15:10:01.259Z,12.10
2022-12-11T15:12:28.634Z,14.45
2022-12-11T15:14:57.791Z,12.85
2022-12-11T15:17:26.274Z,14.98
2022-12-11T15:19:55.558Z,16.88
2022-12-11T15:22:26.999Z,14.60
2022-12-11T15:24:55.298Z,12.35
2022-12-11T15:27:22.702Z,12.77
2022-12-11T15:29:50.271Z,13.98
2022-12-11T15:32:19.277Z,14.77
2022-12-11T15:34:49.032Z,13.68
2022-12-11T15:37:26.671Z,16.35
2022-12-11T15:39:54.872Z,14.00
2022-12-11T15:42:27.152Z,20.60
2022-12-11T15:44:55.774Z,18.73
2022-12-11T15:47:24.701Z,13.70
2022-12-11T15:49:55.079Z,13.30
2022-12-11T15:52:22.509Z,13.23
2022-12-11T15:54:49.724Z,15.93
2022-12-11T15:57:19.057Z,33.58
2022-12-11T15:59:48.937Z,20.00
2022-12-11T16:02:16.473Z,20.73
2022-12-11T16:04:44.026Z,15.07
2022-12-11T16:07:19.323Z,16.40
2022-12-11T16:09:46.866Z,15.05
2022-12-11T16:12:14.643Z,15.85
2022-12-11T16:14:42.714Z,19.40
2022-12-11T16:17:10.838Z,18.38
2022-12-11T16:19:38.304Z,18.02
2022-12-11T16:22:06.253Z,16.85
2022-12-11T16:24:34.099Z,16.70
2022-12-11T16:27:01.506Z,18.45
2022-12-11T16:29:28.792Z,18.77
2022-12-11T16:31:56.104Z,17.63
2022-12-11T16:34:29.594Z,25.67
2022-12-11T16:36:58.458Z,21.13
2022-12-11T16:39:25.829Z,16.25
2022-12-11T16:41:53.215Z,15.27
2022-12-11T16:44:21.523Z,22.98
2022-12-11T16:46:48.969Z,22.05
2022-12-11T16:49:16.384Z,22.30
2022-12-11T16:51:43.652Z,28.70
2022-12-11T16:54:11.415Z,26.73
2022-12-11T16:56:38.943Z,23.42
2022-12-11T16:59:06.750Z,20.77
2022-12-11T17:01:34.643Z,22.77
2022-12-11T17:04:02.070Z,20.92
2022-12-11T17:06:29.662Z,19.95
2022-12-11T17:08:57.244Z,22.98
2022-12-11T17:11:26.407Z,18.73
2022-12-11T17:13:55.299Z,19.75
2022-12-11T17:16:22.806Z,21.02
2022-12-11T17:18:50.242Z,19.83
2022-12-11T17:21:18.990Z,17.90
2022-12-11T17:23:46.396Z,21.23
2022-12-11T17:26:13.587Z,19.30
2022-12-11T17:28:41.158Z,22.40
2022-12-11T17:31:09.917Z,19.13
2022-12-11T17:33:37.145Z,20.52
2022-12-11T17:36:05.491Z,20.67
2022-12-11T17:38:32.806Z,21.00
2022-12-11T17:41:05.889Z,21.83
2022-12-11T17:46:21.428Z,20.77
2022-12-11T17:48:49.179Z,22.38
2022-12-11T17:51:22.069Z,19.45
2022-12-11T17:53:49.475Z,23.90
2022-12-11T17:56:17.018Z,21.67
2022-12-11T17:58:44.543Z,19.00
2022-12-11T18:01:13.310Z,17.42
2022-12-11T18:03:41.509Z,18.45
2022-12-11T18:06:12.959Z,17.45
2022-12-11T18:08:40.778Z,14.73
2022-12-11T18:11:09.751Z,14.02
2022-12-11T18:13:37.267Z,19.02
2022-12-11T18:16:09.085Z,15.02
2022-12-11T18:18:36.775Z,15.93
2022-12-11T18:21:04.219Z,22.10
2022-12-11T18:23:31.373Z,15.25
2022-12-11T18:25:58.535Z,15.95
2022-12-11T18:28:25.777Z,19.15
2022-12-11T18:30:53.125Z,18.73
2022-12-11T18:33:20.505Z,16.75
2022-12-11T18:35:50.546Z,16.55
2022-12-11T18:38:18.128Z,15.93
2022-12-11T18:40:45.557Z,21.20
2022-12-11T18:43:12.893Z,21.45
2022-12-11T18:45:41.612Z,16.98
2022-12-11T18:48:09.849Z,17.83
2022-12-11T18:50:37.243Z,18.00
2022-12-11T18:53:04.999Z,18.88
2022-12-11T18:55:32.396Z,17.50
2022-12-11T18:57:59.619Z,18.42
2022-12-11T19:00:27.051Z,20.00
2022-12-11T19:02:54.541Z,17.65
2022-12-11T19:05:21.971Z,19.45
2022-12-11T19:07:49.263Z,20.20
2022-12-11T19:10:16.716Z,16.52
2022-12-11T19:12:44.151Z,15.85
2022-12-11T19:15:11.781Z,16.98
2022-12-11T19:17:39.515Z,15.52
2022-12-11T19:20:32.275Z,15.13
2022-12-11T19:22:55.105Z,16.15
2022-12-11T19:25:22.335Z,27.58
2022-12-11T19:27:50.479Z,15.90
2022-12-11T19:30:17.834Z,15.63
2022-12-11T19:32:45.180Z,30.63
2022-12-11T19:35:13.959Z,18.48
2022-12-11T19:37:41.443Z,18.67
2022-12-11T19:40:09.548Z,18.15
2022-12-11T19:42:36.697Z,19.42
2022-12-11T19:45:04.136Z,21.63
2022-12-11T19:47:31.291Z,20.23
2022-12-11T19:49:58.478Z,20.13
2022-12-11T19:52:25.827Z,23.00
2022-12-11T19:54:53.088Z,21.55
2022-12-11T19:57:20.251Z,25.08
2022-12-11T19:59:50.273Z,26.10
2022-12-11T20:02:19.822Z,31.20
2022-12-11T20:04:47.003Z,27.42
2022-12-11T20:07:14.293Z,28.02
2022-12-11T20:09:41.523Z,26.67
2022-12-11T20:12:10.401Z,25.75
2022-12-11T20:14:38.330Z,25.27
2022-12-11T20:17:14.267Z,31.67
2022-12-11T20:19:42.252Z,38.22
2022-12-11T20:22:09.490Z,28.35
2022-12-11T20:24:36.758Z,28.25
2022-12-11T20:27:04.311Z,24.27
2022-12-11T20:29:31.514Z,25.55
2022-12-11T20:32:00.393Z,31.38
2022-12-11T20:34:28.184Z,29.55
2022-12-11T20:36:56.345Z,29.83
2022-12-11T20:39:23.525Z,26.35
2022-12-11T20:41:50.698Z,25.75
2022-12-11T20:44:19.206Z,23.60
2022-12-11T20:46:46.389Z,24.88
2022-12-11T20:49:13.749Z,22.95
2022-12-11T20:51:41.161Z,22.48
2022-12-11T20:54:08.753Z,23.83
2022-12-11T20:56:36.146Z,22.63
2022-12-11T20:59:03.520Z,18.17
2022-12-11T21:01:32.030Z,21.98
2022-12-11T21:03:59.728Z,24.08
2022-12-11T21:06:28.471Z,20.90
2022-12-11T21:08:55.735Z,19.38
2022-12-11T21:11:22.935Z,18.92
2022-12-11T21:13:50.131Z,25.20
2022-12-11T21:16:17.388Z,22.15
2022-12-11T21:18:46.409Z,22.23
2022-12-11T21:21:13.902Z,20.27
2022-12-11T21:23:43.187Z,21.20
2022-12-11T21:26:10.412Z,25.45
2022-12-11T21:28:37.580Z,25.15
2022-12-11T21:31:06.749Z,26.52
2022-12-11T21:33:34.045Z,22.23
2022-12-11T21:36:01.243Z,20.80
2022-12-11T21:38:28.616Z,21.73
2022-12-11T21:40:56.741Z,20.08
2022-12-11T21:43:25.023Z,18.98
2022-12-11T21:46:01.064Z,19.70
2022-12-11T21:48:33.068Z,20.55
2022-12-11T21:51:10.875Z,20.45
2022-12-11T21:53:38.361Z,19.65
2022-12-11T21:56:07.021Z,18.92
2022-12-11T21:58:34.460Z,25.20
2022-12-11T22:01:01.713Z,31.08
2022-12-11T22:03:28.940Z,25.83
2022-12-11T22:05:56.207Z,26.85
2022-12-11T22:08:23.495Z,27.92
2022-12-11T22:10:50.772Z,24.70
2022-12-11T22:13:18.089Z,26.48
2022-12-11T22:15:46.099Z,29.00
2022-12-11T22:18:13.439Z,25.55
2022-12-11T22:20:40.812Z,29.60
2022-12-11T22:23:08.184Z,29.98
2022-12-11T22:25:35.383Z,25.85
2022-12-11T22:28:02.944Z,28.17
2022-12-11T22:30:30.235Z,27.27
2022-12-11T22:32:57.474Z,26.40
2022-12-11T22:35:27.409Z,23.70
2022-12-11T22:37:54.974Z,29.35
2022-12-11T22:40:22.461Z,25.63
2022-12-11T22:42:49.856Z,24.23
2022-12-11T22:45:17.171Z,27.25
2022-12-11T22:47:44.358Z,25.08
2022-12-11T22:50:11.667Z,26.92
2022-12-11T22:52:39.091Z,23.20
2022-12-11T22:55:06.803Z,25.00
2022-12-11T22:57:38.795Z,25.02
2022-12-11T23:00:07.628Z,24.13
2022-12-11T23:02:35.109Z,27.00
2022-12-11T23:05:02.335Z,27.50
2022-12-11T23:07:29.554Z,22.05
2022-12-11T23:09:56.798Z,24.92
2022-12-11T23:12:24.063Z,21.52
2022-12-11T23:14:51.856Z,21.98
2022-12-11T23:17:19.243Z,23.60
2022-12-11T23:19:46.775Z,28.38
2022-12-11T23:22:14.250Z,27.42
2022-12-11T23:24:41.413Z,24.38
2022-12-11T23:27:08.783Z,22.25
2022-12-11T23:29:35.940Z,23.42
2022-12-11T23:32:03.203Z,22.95
2022-12-11T23:34:30.395Z,22.38
2022-12-11T23:36:57.582Z,20.92
2022-12-11T23:39:24.717Z,20.05
2022-12-11T23:41:51.903Z,23.92
2022-12-11T23:44:19.106Z,22.38
2022-12-11T23:46:46.282Z,20.40
2022-12-11T23:49:13.484Z,22.85
2022-12-11T23:51:40.668Z,21.02
2022-12-11T23:54:07.859Z,19.20
2022-12-11T23:56:35.027Z,21.38
2022-12-11T23:59:02.246Z,22.15
